createdAt,value
2022-09-01T00:00:06.486Z,0.00
2022-09-01T00:05:38.431Z,0.00
2022-09-01T00:11:10.438Z,0.00
2022-09-01T00:16:42.261Z,0.00
2022-09-01T00:22:13.978Z,0.00
2022-09-01T00:27:45.962Z,0.00
2022-09-01T00:33:17.562Z,0.00
2022-09-01T00:38:49.152Z,0.00
2022-09-01T00:49:50.426Z,0.00
2022-09-01T00:55:22.009Z,1.00
2022-09-01T01:00:53.571Z,0.00
2022-09-01T01:08:46.982Z,1.00
2022-09-01T01:14:19.050Z,0.00
2022-09-01T01:19:50.907Z,0.00
2022-09-01T01:25:22.596Z,0.00
2022-09-01T01:30:54.216Z,0.00
2022-09-01T01:36:26.075Z,0.00
2022-09-01T01:41:58.024Z,1.00
2022-09-01T01:47:29.718Z,0.00
2022-09-01T01:53:01.683Z,1.00
2022-09-01T01:58:33.972Z,0.00
2022-09-01T02:04:05.812Z,0.00
2022-09-01T02:09:37.993Z,0.00
2022-09-01T02:15:10.073Z,0.00
2022-09-01T02:20:42.019Z,0.00
2022-09-01T02:26:16.661Z,0.00
2022-09-01T02:31:45.559Z,1.00
2022-09-01T02:37:17.441Z,0.00
2022-09-01T02:42:49.368Z,0.00
2022-09-01T02:48:21.363Z,0.00
2022-09-01T02:53:53.237Z,1.00
2022-09-01T02:59:24.746Z,1.00
2022-09-01T03:04:56.524Z,0.00
2022-09-01T03:10:28.522Z,0.00
2022-09-01T03:16:00.532Z,0.00
2022-09-01T03:21:32.633Z,0.00
2022-09-01T03:27:04.517Z,0.00
2022-09-01T03:32:36.394Z,0.00
2022-09-01T03:38:08.063Z,0.00
2022-09-01T03:43:47.310Z,0.00
2022-09-01T03:49:12.500Z,1.00
2022-09-01T03:54:44.635Z,2.00
2022-09-01T04:00:16.342Z,4.00
2022-09-01T04:05:47.905Z,11.00
2022-09-01T04:11:19.776Z,43.00
2022-09-01T04:16:52.054Z,119.00
2022-09-01T04:22:24.013Z,324.00
2022-09-01T04:27:56.221Z,702.00
2022-09-01T04:33:33.442Z,736.00
2022-09-01T04:39:05.469Z,1175.00
2022-09-01T04:44:37.172Z,1610.00
2022-09-01T04:50:09.017Z,1882.00
2022-09-01T04:55:40.543Z,2183.00
2022-09-01T05:01:12.566Z,2439.00
2022-09-01T05:17:45.817Z,5169.00
2022-09-01T05:23:17.649Z,8661.00
2022-09-01T05:28:49.634Z,12435.00
2022-09-01T05:34:21.600Z,15458.00
2022-09-01T05:39:53.094Z,37889.00
2022-09-01T05:45:24.853Z,31727.00
2022-09-01T05:50:56.787Z,27608.00
2022-09-01T05:56:28.636Z,16746.00
2022-09-01T06:02:00.230Z,14840.00
2022-09-01T06:07:31.953Z,11852.00
2022-09-01T06:13:04.142Z,12065.00
2022-09-01T06:18:36.519Z,12835.00
2022-09-01T06:24:08.389Z,15345.00
2022-09-01T06:29:40.251Z,30655.00
2022-09-01T06:35:12.430Z,25550.00
2022-09-01T06:40:44.409Z,37888.00
2022-09-01T06:46:16.483Z,25874.00
2022-09-01T06:51:48.355Z,16141.00
2022-09-01T07:02:52.120Z,9496.00
2022-09-01T07:08:23.771Z,10790.00
2022-09-01T07:19:48.440Z,8479.00
2022-09-01T07:25:11.916Z,10118.00
2022-09-01T07:30:31.165Z,23202.00
2022-09-01T07:47:52.440Z,12997.00
2022-09-01T07:52:38.921Z,12964.00
2022-09-01T07:58:10.727Z,16459.00
2022-09-01T08:03:42.815Z,22997.00
2022-09-01T08:14:46.416Z,17016.00
2022-09-01T08:20:18.421Z,32177.00
2022-09-01T08:25:50.720Z,25713.00
2022-09-01T08:31:22.036Z,37889.00
2022-09-01T08:36:54.029Z,37889.00
2022-09-01T08:42:26.240Z,37889.00
2022-09-01T08:53:32.739Z,37889.00
2022-09-01T08:59:03.667Z,37889.00
2022-09-01T09:04:35.395Z,37889.00
2022-09-01T09:10:09.168Z,37889.00
2022-09-01T09:15:40.976Z,37889.00
2022-09-01T09:21:12.711Z,37889.00
2022-09-01T09:26:44.818Z,37889.00
2022-09-01T09:32:35.176Z,37889.00
2022-09-01T09:37:50.566Z,37889.00
2022-09-01T09:43:22.498Z,37889.00
2022-09-01T09:48:54.721Z,34720.00
2022-09-01T09:54:26.941Z,32282.00
2022-09-01T10:00:00.982Z,22258.00
2022-09-01T10:05:31.035Z,26037.00
2022-09-01T10:11:02.936Z,30830.00
2022-09-01T10:16:34.805Z,27909.00
2022-09-01T10:22:06.451Z,23432.00
2022-09-01T10:27:38.480Z,22610.00
2022-09-01T10:33:19.634Z,20299.00
2022-09-01T10:38:50.455Z,20709.00
2022-09-01T10:44:15.767Z,24439.00
2022-09-01T10:49:47.402Z,22775.00
2022-09-01T10:55:24.495Z,19634.00
2022-09-01T11:06:24.031Z,16698.00
2022-09-01T11:11:55.990Z,23894.00
2022-09-01T11:17:28.415Z,21222.00
2022-09-01T11:28:29.747Z,21492.00
2022-09-01T11:34:01.582Z,25299.00
2022-09-01T11:39:33.519Z,27740.00
2022-09-01T11:45:05.083Z,31070.00
2022-09-01T11:50:37.377Z,27253.00
2022-09-01T11:56:09.552Z,35759.00
2022-09-01T12:01:41.023Z,37889.00
2022-09-01T12:07:13.284Z,34372.00
2022-09-01T12:12:45.412Z,29650.00
2022-09-01T12:18:17.065Z,37889.00
2022-09-01T12:23:49.203Z,30862.00
2022-09-01T12:29:21.267Z,29947.00
2022-09-01T12:34:53.260Z,33134.00
2022-09-01T12:40:25.558Z,34931.00
2022-09-01T12:45:57.751Z,35424.00
2022-09-01T12:51:31.637Z,34488.00
2022-09-01T12:57:01.534Z,32342.00
2022-09-01T13:02:33.655Z,27970.00
2022-09-01T13:08:06.022Z,19551.00
2022-09-01T13:13:37.815Z,14870.00
2022-09-01T13:19:11.203Z,16720.00
2022-09-01T13:24:41.888Z,22461.00
2022-09-01T13:30:14.260Z,27380.00
2022-09-01T13:35:46.296Z,21717.00
2022-09-01T13:41:18.127Z,22117.00
2022-09-01T13:52:21.727Z,14873.00
2022-09-01T13:57:55.861Z,15037.00
2022-09-01T14:03:25.540Z,13380.00
2022-09-01T14:08:57.652Z,13339.00
2022-09-01T14:15:10.714Z,12516.00
2022-09-01T14:20:01.814Z,12133.00
2022-09-01T14:22:14.427Z,10992.00
2022-09-01T14:27:46.308Z,11312.00
2022-09-01T14:33:17.581Z,11266.00
2022-09-01T14:38:49.347Z,12111.00
2022-09-01T14:44:21.103Z,10166.00
2022-09-01T14:49:52.524Z,7392.00
2022-09-01T14:55:24.415Z,9622.00
2022-09-01T15:01:00.390Z,9704.00
2022-09-01T15:06:27.943Z,9647.00
2022-09-01T15:11:59.614Z,9700.00
2022-09-01T15:17:31.516Z,9849.00
2022-09-01T15:23:03.449Z,10118.00
2022-09-01T15:28:35.058Z,10396.00
2022-09-01T15:34:06.987Z,11149.00
2022-09-01T15:39:38.784Z,11936.00
2022-09-01T15:45:10.497Z,12192.00
2022-09-01T15:50:42.020Z,13199.00
2022-09-01T15:56:13.507Z,11213.00
2022-09-01T16:01:45.601Z,4410.00
2022-09-01T16:07:17.386Z,4133.00
2022-09-01T16:12:49.107Z,7279.00
2022-09-01T16:18:20.847Z,7052.00
2022-09-01T16:23:52.397Z,6792.00
2022-09-01T16:29:24.323Z,6434.00
2022-09-01T16:34:56.139Z,6130.00
2022-09-01T16:40:27.847Z,5748.00
2022-09-01T16:46:00.676Z,5307.00
2022-09-01T16:51:32.446Z,4916.00
2022-09-01T16:57:04.207Z,4550.00
2022-09-01T17:02:36.114Z,3891.00
2022-09-01T17:13:39.615Z,3332.00
2022-09-01T17:19:11.334Z,2872.00
2022-09-01T17:24:43.199Z,2392.00
2022-09-01T17:30:14.836Z,1894.00
2022-09-01T17:35:46.463Z,1532.00
2022-09-01T17:41:17.660Z,1061.00
2022-09-01T17:46:49.130Z,799.00
2022-09-01T17:52:20.198Z,484.00
2022-09-01T17:57:51.584Z,294.00
2022-09-01T18:03:22.917Z,176.00
2022-09-01T18:14:25.730Z,40.00
2022-09-01T18:19:57.468Z,15.00
2022-09-01T18:25:29.083Z,4.00
2022-09-01T18:31:00.459Z,2.00
2022-09-01T18:36:32.033Z,1.00
2022-09-01T18:42:03.596Z,1.00
2022-09-01T18:47:37.028Z,2.00
2022-09-01T18:53:08.456Z,1.00
2022-09-01T18:58:39.795Z,0.00
2022-09-01T19:04:11.062Z,0.00
2022-09-01T19:09:42.428Z,1.00
2022-09-01T19:20:45.296Z,0.00
2022-09-01T19:26:16.992Z,1.00
2022-09-01T19:31:48.277Z,1.00
2022-09-01T19:37:19.645Z,0.00
2022-09-01T19:42:51.002Z,0.00
2022-09-01T19:48:22.422Z,0.00
2022-09-01T19:53:54.024Z,1.00
2022-09-01T19:59:25.459Z,1.00
2022-09-01T20:04:57.360Z,0.00
2022-09-01T20:10:28.873Z,0.00
2022-09-01T20:16:00.766Z,1.00
2022-09-01T20:27:04.206Z,1.00
2022-09-01T20:32:35.581Z,0.00
2022-09-01T20:38:09.185Z,1.00
2022-09-01T20:43:40.880Z,1.00
2022-09-01T20:49:12.155Z,0.00
2022-09-01T20:54:43.549Z,1.00
2022-09-01T21:00:14.876Z,0.00
2022-09-01T21:05:46.582Z,0.00
2022-09-01T21:11:17.878Z,0.00
2022-09-01T21:16:49.119Z,0.00
2022-09-01T21:22:22.395Z,0.00
2022-09-01T21:27:52.198Z,0.00
2022-09-01T21:33:23.670Z,0.00
2022-09-01T21:38:55.285Z,1.00
2022-09-01T21:44:26.641Z,0.00
2022-09-01T21:49:58.480Z,0.00
2022-09-01T21:55:30.167Z,0.00
2022-09-01T22:01:01.783Z,0.00
2022-09-01T22:06:33.714Z,0.00
2022-09-01T22:12:05.453Z,1.00
2022-09-01T22:17:37.274Z,0.00
2022-09-01T22:23:09.131Z,0.00
2022-09-01T22:28:40.496Z,0.00
2022-09-01T22:34:12.072Z,0.00
2022-09-01T22:39:43.762Z,0.00
2022-09-01T22:45:15.855Z,0.00
2022-09-01T22:50:49.322Z,1.00
2022-09-01T22:56:21.264Z,0.00
2022-09-01T23:01:53.211Z,0.00
2022-09-01T23:07:25.042Z,0.00
2022-09-01T23:12:56.736Z,0.00
2022-09-01T23:18:28.403Z,1.00
2022-09-01T23:24:00.180Z,0.00
2022-09-01T23:29:31.942Z,0.00
2022-09-01T23:35:03.881Z,0.00
2022-09-01T23:40:35.606Z,0.00
2022-09-01T23:46:07.523Z,1.00
2022-09-01T23:51:39.358Z,0.00
2022-09-01T23:57:11.162Z,0.00
